Latest Weather Observations for Canterbury

IDN60801

Issued at 5:02 pm EDT Wednesday 22 February 2017 (issued every 30 minutes, with the page automatically refreshed every 10 minutes)

About weather observations | Map of weather stations | Latest weather observations for NSW | Other Formats
Station Details ID: 066194 Name: CANTERBURY RACECOURSE AWS Lat: -33.91 Lon: 151.11 Height: 3.0 m
Data from the previous 72 hours. | See also: Recent months at Canterbury
Date/Time
EDT
Temp
°C
App
Temp
°C
Dew
Point
°C
Rel
Hum
%
Delta-T
°C
Wind Press
QNH
hPa
Press
MSL
hPa
Rain since
9am
mm
Dir  Spd
km/h
Gust
km/h
Spd
kts
Gust
kts
22/04:30pm 26.6 23.8 15.3 50 6.9 NE 24 37 13 20 - - 0.0
22/04:00pm 27.7 25.1 16.0 49 7.2 ENE 24 41 13 22 - - 0.0
22/03:30pm 27.2 24.7 15.2 47 7.3 ENE 22 35 12 19 - - 0.0
22/03:00pm 27.3 24.7 16.0 50 6.9 NE 24 41 13 22 - - 0.0
22/02:30pm 27.4 24.6 15.4 48 7.3 NE 24 35 13 19 - - 0.0
22/02:00pm 27.0 24.2 15.4 49 7.1 ENE 24 39 13 21 - - 0.0
22/01:30pm 26.8 24.1 15.5 50 6.9 NE 24 35 13 19 - - 0.0
22/01:00pm 26.9 24.5 15.3 49 7.0 NNE 22 35 12 19 - - 0.0
22/12:30pm 27.2 25.2 15.6 49 7.1 NE 20 35 11 19 - - 0.0
22/12:00pm 27.2 25.9 16.8 53 6.5 NE 19 33 10 18 - - 0.0
22/11:30am 26.9 25.6 15.9 51 6.7 ENE 17 28 9 15 - - 0.0
22/11:00am 26.9 25.5 15.6 50 6.9 NNE 17 24 9 13 - - 0.0
22/10:30am 26.3 25.2 16.3 54 6.2 NE 17 26 9 14 - - 0.0
22/10:00am 25.4 24.2 15.1 53 6.2 NE 15 28 8 15 - - 0.0
22/09:30am 24.9 24.0 15.8 57 5.5 NNE 15 22 8 12 - - 0.0
22/09:00am 23.7 23.7 16.2 63 4.6 N 11 17 6 9 - - 0.0
22/08:30am 23.0 24.0 16.8 68 3.8 N 7 17 4 9 - - 0.0
22/08:00am 20.4 22.4 16.0 76 2.6 CALM 0 0 0 0 - - 0.0
22/07:30am 17.6 19.5 15.8 89 1.1 CALM 0 0 0 0 - - 0.0
22/07:00am 16.1 17.6 14.6 91 0.9 CALM 0 0 0 0 - - 0.0
22/06:30am 16.1 17.7 14.8 92 0.7 CALM 0 0 0 0 - - 0.0
22/06:00am 16.5 18.1 15.0 91 0.9 CALM 0 0 0 0 - - 0.0
22/05:30am 16.8 18.5 15.2 90 0.9 CALM 0 0 0 0 - - 0.0
22/05:00am 16.8 18.4 14.8 88 1.2 CALM 0 0 0 0 - - 0.0
22/04:30am 17.1 18.8 15.1 88 1.2 CALM 0 0 0 0 - - 0.0
22/04:00am 17.5 19.2 15.1 86 1.4 CALM 0 0 0 0 - - 0.0
22/03:30am 17.9 19.6 15.2 84 1.6 CALM 0 0 0 0 - - 0.0
22/03:00am 18.5 20.2 15.2 81 1.9 CALM 0 0 0 0 - - 0.0
22/02:30am 19.0 20.7 15.1 78 2.3 CALM 0 6 0 3 - - 0.0
22/02:00am 20.4 21.3 15.0 71 3.2 NNW 4 9 2 5 - - 0.0
22/01:30am 21.0 21.2 14.6 67 3.7 N 7 13 4 7 - - 0.0
22/01:00am 21.6 21.1 15.0 66 3.9 N 11 19 6 10 - - 0.0
22/12:30am 21.8 21.3 14.9 65 4.1 N 11 19 6 10 - - 0.0
22/12:00am 21.7 21.5 14.8 65 4.1 NNE 9 17 5 9 - - 0.0
 
Date/Time
EDT
Temp
°C
App
Temp
°C
Dew
Point
°C
Rel
Hum
%
Delta-T
°C
Wind Press
QNH
hPa
Press
MSL
hPa
Rain since
9am
mm
Dir  Spd
km/h
Gust
km/h
Spd
kts
Gust
kts
21/11:30pm 22.1 21.5 14.7 63 4.4 NNE 11 22 6 12 - - 0.0
21/11:00pm 22.3 21.0 14.9 63 4.4 NNE 15 28 8 15 - - 0.0
21/10:30pm 22.4 21.5 14.8 62 4.5 NNE 13 22 7 12 - - 0.0
21/10:00pm 22.5 21.1 14.6 61 4.7 NNE 15 24 8 13 - - 0.0
21/09:30pm 22.7 21.5 15.0 61 4.6 NNE 15 24 8 13 - - 0.0
21/09:00pm 23.0 22.0 15.6 63 4.4 NNE 15 30 8 16 - - 0.0
21/08:30pm 23.1 22.3 14.1 57 5.3 NNE 11 19 6 10 - - 0.0
21/08:00pm 23.2 22.1 14.2 57 5.3 NE 13 19 7 10 - - 0.0
21/07:30pm 23.6 22.0 14.0 55 5.6 NE 15 26 8 14 - - 0.0
21/07:00pm 24.3 22.1 13.2 50 6.4 NE 17 30 9 16 - - 0.0
21/06:30pm 24.8 22.4 13.7 50 6.5 ENE 19 32 10 17 - - 0.0
21/06:00pm 24.7 21.5 13.0 48 6.8 ENE 22 30 12 16 - - 0.0
21/05:30pm 24.5 22.1 14.3 53 6.0 E 20 32 11 17 - - 0.0
21/05:00pm 24.8 21.9 13.0 47 6.8 E 20 28 11 15 - - 0.0
21/04:30pm 26.0 24.0 13.8 47 7.2 E 17 24 9 13 - - 0.0
21/04:00pm 25.8 22.9 12.3 43 7.8 ESE 19 28 10 15 - - 0.0
21/03:30pm 24.6 21.5 12.2 46 7.1 SE 20 28 11 15 - - 0.0
21/03:00pm 25.7 23.2 13.5 46 7.2 SE 19 28 10 15 - - 0.0
21/02:30pm 25.4 23.3 14.8 52 6.3 SE 19 32 10 17 - - 0.0
21/02:00pm 24.3 22.2 13.5 51 6.3 SE 17 26 9 14 - - 0.0
21/01:30pm 24.7 22.8 14.2 52 6.2 SE 17 28 9 15 - - 0.0
21/01:00pm 24.4 22.0 13.9 52 6.2 SE 19 28 10 15 - - 0.0
21/12:30pm 24.7 22.5 12.0 45 7.2 SE 15 24 8 13 - - 0.0
21/12:00pm 24.5 22.1 10.0 40 8.0 ESE 13 20 7 11 - - 0.0
21/11:30am 24.5 22.0 9.6 39 8.1 SE 13 24 7 13 - - 0.0
21/11:00am 24.5 22.9 11.5 44 7.3 SE 11 24 6 13 - - 0.0
21/10:30am 23.6 21.6 11.6 47 6.8 SSE 13 19 7 10 - - 0.0
21/10:00am 22.7 21.0 7.7 38 7.8 S 6 11 3 6 - - 0.0
21/09:30am 20.8 19.4 7.4 42 6.9 WNW 4 11 2 6 - - 0.0
21/09:00am 19.1 17.1 7.2 46 6.0 W 7 9 4 5 - - 0.0
21/08:30am 17.5 15.0 6.7 49 5.3 W 9 13 5 7 - - 0.0
21/08:00am 16.5 14.6 7.4 55 4.5 WNW 7 9 4 5 - - 0.0
21/07:30am 15.2 13.9 7.5 60 3.8 NW 4 7 2 4 - - 0.0
21/07:00am 14.0 11.9 5.9 58 3.8 NW 6 7 3 4 - - 0.0
21/06:30am 13.8 12.8 5.7 58 3.8 CALM 0 0 0 0 - - 0.0
21/06:00am 13.8 11.6 5.4 57 3.9 NW 6 7 3 4 - - 0.0
21/05:30am 13.3 11.3 6.4 63 3.3 NW 6 9 3 5 - - 0.0
21/05:00am 13.1 12.5 7.3 68 2.8 CALM 0 0 0 0 - - 0.0
21/04:30am 13.0 12.5 7.7 70 2.6 CALM 0 0 0 0 - - 0.0
21/04:00am 13.6 13.0 7.6 67 2.9 CALM 0 6 0 3 - - 0.0
21/03:30am 13.8 13.7 9.5 75 2.2 CALM 0 0 0 0 - - 0.0
21/03:00am 14.5 14.6 10.1 75 2.3 CALM 0 0 0 0 - - 0.0
21/02:30am 14.6 14.8 10.4 76 2.2 CALM 0 0 0 0 - - 0.0
21/02:00am 14.9 15.4 11.7 81 1.7 CALM 0 0 0 0 - - 0.0
21/01:30am 15.1 15.3 10.5 74 2.4 CALM 0 0 0 0 - - 0.0
21/01:00am 15.1 15.9 12.4 84 1.5 CALM 0 0 0 0 - - 0.0
21/12:30am 15.1 15.4 10.9 76 2.2 CALM 0 0 0 0 - - 0.0
21/12:00am 15.5 15.9 11.1 75 2.3 CALM 0 0 0 0 - - 0.0
 
Date/Time
EDT
Temp
°C
App
Temp
°C
Dew
Point
°C
Rel
Hum
%
Delta-T
°C
Wind Press
QNH
hPa
Press
MSL
hPa
Rain since
9am
mm
Dir  Spd
km/h
Gust
km/h
Spd
kts
Gust
kts
20/11:30pm 15.7 15.9 10.5 71 2.7 CALM 0 0 0 0 - - 0.0
20/11:00pm 16.4 16.5 10.3 67 3.2 CALM 0 0 0 0 - - 0.0
20/10:30pm 16.2 16.2 9.8 66 3.3 CALM 0 0 0 0 - - 0.0
20/10:00pm 17.4 18.1 12.1 71 2.9 CALM 0 0 0 0 - - 0.0
20/09:30pm 17.3 17.7 11.1 67 3.3 CALM 0 0 0 0 - - 0.0
20/09:00pm 18.6 18.3 8.8 53 5.1 CALM 0 0 0 0 - - 0.0
20/08:30pm 20.0 19.9 9.3 50 5.7 CALM 0 0 0 0 - - 0.0
20/08:00pm 21.4 19.2 6.1 37 7.7 ENE 7 11 4 6 - - 0.0
20/07:30pm 22.5 19.1 5.9 34 8.4 E 13 20 7 11 - - 0.0
20/07:00pm 23.7 19.4 5.1 30 9.3 E 17 22 9 12 - - 0.0
20/06:30pm 24.4 19.5 4.2 27 10.0 ESE 19 24 10 13 - - 0.0
20/06:00pm 24.9 20.5 4.6 27 10.2 ESE 17 26 9 14 - - 0.0
20/05:30pm 25.7 22.1 4.8 26 10.5 SE 13 24 7 13 - - 0.0
20/05:00pm 27.3 22.5 -2.5 14 13.3 NW 13 28 7 15 - - 0.0
20/04:30pm 27.3 23.7 0.9 18 12.6 WNW 9 20 5 11 - - 0.0
20/04:00pm 26.9 21.0 -1.9 15 13.0 W 19 32 10 17 - - 0.0
20/03:30pm 26.9 22.5 0.6 18 12.4 WNW 13 28 7 15 - - 0.0
20/03:00pm 26.3 21.8 2.3 21 11.6 WSW 15 28 8 15 - - 0.0
20/02:30pm 25.9 20.2 -1.0 17 12.2 W 19 32 10 17 - - 0.0
20/02:00pm 25.2 20.0 0.0 19 11.6 W 17 32 9 17 - - 0.0
20/01:30pm 24.6 19.6 -1.3 18 11.6 NW 15 28 8 15 - - 0.0
20/01:00pm 24.3 18.4 1.9 23 10.6 W 22 33 12 18 - - 0.0
20/12:30pm 24.2 19.0 -0.2 20 11.1 W 17 26 9 14 - - 0.0
20/12:00pm 23.0 17.5 0.8 23 10.2 WNW 19 37 10 20 - - 0.0
20/11:30am 22.3 16.0 1.3 25 9.7 WSW 24 35 13 19 - - 0.0
20/11:00am 21.8 15.9 2.0 27 9.2 W 22 37 12 20 - - 0.0
20/10:30am 21.1 14.1 1.9 28 8.9 W 28 43 15 23 - - 0.0
20/10:09am 21.0 14.2 3.2 31 8.4 W 28 46 15 25 - - 0.0
20/10:00am 20.7 15.0 3.0 31 8.3 W 22 39 12 21 - - 0.0
20/09:30am 19.9 12.5 1.8 30 8.3 W 30 43 16 23 - - 0.0
20/09:00am 19.7 14.9 5.4 39 7.0 W 20 32 11 17 - - 7.6
20/08:30am 19.3 16.3 6.1 42 6.5 WNW 11 17 6 9 - - 7.6
20/08:00am 18.4 15.4 5.9 44 6.1 WNW 11 20 6 11 - - 7.6
20/07:30am 17.3 14.7 5.9 47 5.5 W 9 13 5 7 - - 7.6
20/07:00am 16.6 13.9 5.6 48 5.3 WNW 9 17 5 9 - - 7.6
20/06:30am 16.8 12.5 5.1 46 5.6 WSW 17 24 9 13 - - 7.6
20/06:00am 15.7 12.8 4.4 47 5.3 WSW 9 17 5 9 - - 7.6
20/05:30am 16.3 13.7 4.4 45 5.6 W 7 13 4 7 - - 7.6
20/05:00am 15.7 12.8 4.4 47 5.3 WSW 9 13 5 7 - - 7.6
20/04:30am 16.1 14.1 4.5 46 5.4 W 4 13 2 7 - - 7.6
20/04:00am 17.5 15.0 3.8 40 6.4 SW 6 11 3 6 - - 7.6
20/03:30am 17.8 14.4 4.0 40 6.5 WSW 11 20 6 11 - - 7.6
20/03:00am 18.3 14.6 4.5 40 6.6 WSW 13 19 7 10 - - 7.6
20/02:30am 18.8 15.3 5.3 41 6.6 WSW 13 22 7 12 - - 7.6
20/02:00am 18.7 16.2 8.4 51 5.3 WSW 11 20 6 11 - - 7.6
20/01:30am 19.2 16.3 9.7 54 5.0 WSW 15 22 8 12 - - 7.6
20/01:00am 17.6 18.7 13.5 77 2.3 CALM 0 11 0 6 - - 7.6
20/12:30am 18.0 19.2 13.9 77 2.3 CALM 0 6 0 3 - - 7.6
20/12:00am 18.2 19.1 14.1 77 2.3 WNW 2 9 1 5 - - 7.6
 
Date/Time
EDT
Temp
°C
App
Temp
°C
Dew
Point
°C
Rel
Hum
%
Delta-T
°C
Wind Press
QNH
hPa
Press
MSL
hPa
Rain since
9am
mm
Dir  Spd
km/h
Gust
km/h
Spd
kts
Gust
kts
19/11:30pm 18.9 18.4 12.6 67 3.5 WSW 7 11 4 6 - - 7.6
19/11:00pm 19.8 18.7 11.8 60 4.4 WSW 9 13 5 7 - - 7.6
19/10:30pm 19.7 19.7 14.3 71 3.1 WSW 7 11 4 6 - - 7.6
19/10:00pm 19.8 20.8 16.4 81 2.0 WSW 6 11 3 6 - - 7.6
19/09:30pm 20.0 21.0 16.8 82 1.9 SSW 7 17 4 9 - - 7.6
19/09:00pm 19.1 21.2 18.1 94 0.6 SW 4 13 2 7 - - 7.6
19/08:30pm 18.9 20.2 17.6 92 0.8 NE 7 9 4 5 - - 7.6
19/08:20pm 18.5 20.8 16.7 89 1.1 CALM 0 7 0 4 - - 7.6
19/08:00pm 18.8 17.2 15.9 83 1.7 NNE 19 46 10 25 - - 7.2
19/07:51pm 21.7 21.5 18.5 82 2.0 ENE 17 30 9 16 - - 1.0
19/07:30pm 23.0 21.6 17.0 69 3.7 E 20 30 11 16 - - 0.0
19/07:00pm 23.2 22.2 16.7 67 4.0 ESE 17 24 9 13 - - 0.0
19/06:30pm 23.4 21.9 16.7 66 4.1 ESE 20 28 11 15 - - 0.0
19/06:00pm 23.3 21.7 16.4 65 4.2 E 20 28 11 15 - - 0.0
19/05:30pm 24.1 22.8 16.9 64 4.4 E 19 28 10 15 - - 0.0

Other Formats:

Comma delimited format used in spreadsheet applications
http://www.bom.gov.au/fwo/IDN60801/IDN60801.94766.axf

JavaScript Object Notation format (JSON) in row-major order
http://www.bom.gov.au/fwo/IDN60801/IDN60801.94766.json